Time;durP1;ratioP1;P1;durP2;ratioP2;P2;SDS_P1;SDS_P2;PMS_P1;PMS_P2;Temp;Humidity;BMP_temperature;BMP_pressure;BME280_temperature;BME280_humidity;BME280_pressure;Samples;Min_cycle;Max_cycle;Signal;HPM_P1;HPM_P2
2023/06/09 00:01:18;;;;;;;10.67;9.77;;;19.20;99.90;;;;;;5029999;28;20265;-71
2023/06/09 00:03:46;;;;;;;10.20;9.30;;;19.20;99.90;;;;;;5030018;28;20174;-70
2023/06/09 00:06:13;;;;;;;11.97;10.27;;;19.20;99.90;;;;;;5030398;28;20214;-70
2023/06/09 00:08:38;;;;;;;11.30;10.20;;;19.20;99.90;;;;;;5030320;28;20425;-70
2023/06/09 00:11:04;;;;;;;11.13;10.03;;;19.10;99.90;;;;;;5030320;28;20413;-70
2023/06/09 00:13:30;;;;;;;10.93;10.03;;;19.10;99.90;;;;;;5029456;28;20182;-70
2023/06/09 00:15:55;;;;;;;11.07;10.17;;;19.10;99.90;;;;;;5030268;28;20641;-70
2023/06/09 00:18:24;;;;;;;10.93;10.10;;;19.10;99.90;;;;;;5029993;28;20293;-70
2023/06/09 00:20:50;;;;;;;11.10;10.00;;;19.00;99.90;;;;;;5028650;28;20201;-70
2023/06/09 00:23:16;;;;;;;12.33;11.13;;;19.10;99.90;;;;;;5029168;28;20417;-70
2023/06/09 00:25:42;;;;;;;10.07;9.20;;;19.00;99.90;;;;;;5028954;28;20418;-70
2023/06/09 00:28:09;;;;;;;12.40;11.00;;;19.00;99.90;;;;;;5038672;28;20229;-70
2023/06/09 00:30:35;;;;;;;10.80;9.90;;;18.90;99.90;;;;;;5045504;28;20180;-70
2023/06/09 00:33:01;;;;;;;11.37;10.30;;;18.80;99.90;;;;;;5027731;28;20427;-70
2023/06/09 00:35:27;;;;;;;11.63;10.53;;;18.70;99.90;;;;;;5029600;28;20671;-70
2023/06/09 00:37:52;;;;;;;10.90;10.00;;;18.70;99.90;;;;;;5029804;28;20210;-70
2023/06/09 00:40:20;;;;;;;11.90;10.63;;;18.70;99.90;;;;;;5029607;28;20224;-70
2023/06/09 00:42:46;;;;;;;12.30;11.10;;;18.70;99.90;;;;;;5029440;28;20857;-70
2023/06/09 00:45:13;;;;;;;12.50;11.40;;;18.70;99.90;;;;;;5029400;28;20500;-70
2023/06/09 00:47:40;;;;;;;10.80;9.90;;;18.70;99.90;;;;;;5029507;28;20190;-71
2023/06/09 00:50:07;;;;;;;11.70;10.80;;;18.70;99.90;;;;;;5029559;28;20413;-70
2023/06/09 00:52:33;;;;;;;12.47;11.37;;;18.70;99.90;;;;;;5028973;28;20424;-70
2023/06/09 00:54:59;;;;;;;11.77;10.70;;;18.70;99.90;;;;;;5029320;28;20410;-70
2023/06/09 00:57:25;;;;;;;11.10;10.20;;;18.70;99.90;;;;;;5029623;28;20429;-70
2023/06/09 00:59:51;;;;;;;11.50;10.70;;;18.70;99.90;;;;;;5029475;28;20887;-70
2023/06/09 01:02:17;;;;;;;13.80;12.60;;;18.70;99.90;;;;;;5029010;28;20421;-70
2023/06/09 01:04:49;;;;;;;12.53;11.53;;;18.70;99.90;;;;;;5028145;28;20186;-70
2023/06/09 01:07:24;;;;;;;12.43;11.40;;;18.70;99.90;;;;;;5029596;28;20509;-70
2023/06/09 01:10:00;;;;;;;14.23;13.03;;;18.70;99.90;;;;;;5029447;28;20429;-70
2023/06/09 01:12:59;;;;;;;13.77;12.47;;;18.70;99.90;;;;;;5026510;28;20462;-71
2023/06/09 01:15:30;;;;;;;13.30;12.10;;;18.70;99.90;;;;;;5029407;28;20440;-70
2023/06/09 01:18:00;;;;;;;13.57;12.27;;;18.70;99.90;;;;;;5029238;28;20457;-71
2023/06/09 01:20:45;;;;;;;13.73;12.53;;;18.70;99.90;;;;;;5027736;28;20410;-70
2023/06/09 01:23:33;;;;;;;14.23;12.83;;;18.70;99.90;;;;;;5028319;28;20515;-70
2023/06/09 01:26:01;;;;;;;13.97;12.77;;;18.60;99.90;;;;;;5029285;28;20401;-70
2023/06/09 01:28:28;;;;;;;13.83;12.40;;;18.60;99.90;;;;;;5040434;28;20479;-70
2023/06/09 01:30:55;;;;;;;15.00;13.67;;;18.50;99.90;;;;;;5042202;28;20445;-70
2023/06/09 01:33:23;;;;;;;12.73;11.53;;;18.40;99.90;;;;;;5026688;28;20496;-70
2023/06/09 01:35:50;;;;;;;14.10;12.67;;;18.40;99.90;;;;;;5028843;28;20468;-70
2023/06/09 01:38:20;;;;;;;13.83;12.73;;;18.30;99.90;;;;;;5027619;28;20463;-71
2023/06/09 01:40:47;;;;;;;14.10;12.87;;;18.20;99.90;;;;;;5027595;28;20479;-70
2023/06/09 01:43:12;;;;;;;14.73;13.40;;;18.10;99.90;;;;;;5027954;28;20771;-70
2023/06/09 01:45:38;;;;;;;14.77;13.27;;;18.10;99.90;;;;;;5028828;28;20459;-70
2023/06/09 01:48:22;;;;;;;14.00;12.70;;;18.00;99.90;;;;;;5028935;28;20194;-70
2023/06/09 01:50:53;;;;;;;15.03;13.70;;;18.00;99.90;;;;;;5028738;28;20178;-70
2023/06/09 01:53:39;;;;;;;15.07;13.50;;;18.00;99.90;;;;;;5027888;28;20552;-70
2023/06/09 01:56:13;;;;;;;13.20;11.93;;;18.00;99.90;;;;;;5028776;28;20432;-70
2023/06/09 01:58:46;;;;;;;14.03;12.63;;;18.00;99.90;;;;;;5028679;28;20540;-70
2023/06/09 02:01:16;;;;;;;13.53;12.30;;;18.00;99.90;;;;;;5043893;28;20496;-70
2023/06/09 02:03:44;;;;;;;15.73;14.33;;;17.90;99.90;;;;;;5028231;28;20413;-70
2023/06/09 02:06:14;;;;;;;14.43;13.10;;;18.00;99.90;;;;;;5028485;28;20436;-70
2023/06/09 02:08:42;;;;;;;13.30;12.10;;;17.90;99.90;;;;;;5028611;28;20437;-70
2023/06/09 02:11:10;;;;;;;14.97;13.57;;;18.00;99.90;;;;;;5028330;28;20409;-70
2023/06/09 02:13:36;;;;;;;14.67;13.27;;;17.90;99.90;;;;;;5027148;28;20444;-70
2023/06/09 02:16:02;;;;;;;15.70;14.03;;;17.90;99.90;;;;;;5030983;28;20445;-70
2023/06/09 02:18:27;;;;;;;14.23;12.83;;;17.90;99.90;;;;;;5032305;28;20210;-70
2023/06/09 02:20:53;;;;;;;15.30;13.90;;;17.90;99.90;;;;;;5030902;28;20407;-70
2023/06/09 02:23:21;;;;;;;14.00;12.70;;;17.90;99.90;;;;;;5031360;28;20194;-71
2023/06/09 02:25:47;;;;;;;15.30;13.70;;;17.90;99.90;;;;;;5032195;28;20197;-70
2023/06/09 02:28:13;;;;;;;15.50;13.83;;;17.90;99.90;;;;;;5041560;28;20467;-70
2023/06/09 02:30:39;;;;;;;14.73;13.33;;;17.90;99.90;;;;;;5047276;28;20467;-70
2023/06/09 02:33:06;;;;;;;14.13;12.63;;;17.90;99.90;;;;;;5030969;28;20417;-70
2023/06/09 02:35:32;;;;;;;17.50;13.30;;;17.90;99.90;;;;;;5031919;28;20416;-70
2023/06/09 02:37:58;;;;;;;15.17;13.60;;;17.90;99.90;;;;;;5030613;28;20465;-70
2023/06/09 02:40:26;;;;;;;14.23;12.73;;;17.90;99.90;;;;;;5030810;28;20566;-70
2023/06/09 02:42:52;;;;;;;14.23;12.93;;;17.90;99.90;;;;;;5031062;28;20409;-70
2023/06/09 02:45:18;;;;;;;15.13;13.77;;;17.90;99.90;;;;;;5031542;28;20397;-70
2023/06/09 02:47:43;;;;;;;14.53;13.23;;;17.90;99.90;;;;;;5031612;28;20202;-70
2023/06/09 02:50:10;;;;;;;14.47;13.17;;;17.90;99.90;;;;;;5030571;28;20463;-70
2023/06/09 02:52:35;;;;;;;14.90;13.60;;;17.90;99.90;;;;;;5031243;28;20269;-70
2023/06/09 02:55:02;;;;;;;13.23;12.23;;;17.90;99.90;;;;;;5031106;28;20488;-70
2023/06/09 02:57:29;;;;;;;14.43;13.20;;;17.80;99.90;;;;;;5031597;28;20193;-70
2023/06/09 02:59:54;;;;;;;14.93;13.47;;;17.80;99.90;;;;;;5031521;28;20530;-70
2023/06/09 03:02:20;;;;;;;14.87;13.57;;;17.70;99.90;;;;;;5030916;28;20928;-70
2023/06/09 03:04:46;;;;;;;14.80;13.50;;;17.70;99.90;;;;;;5031114;28;20190;-70
2023/06/09 03:07:16;;;;;;;15.37;14.07;;;17.60;99.90;;;;;;5031442;28;20190;-70
2023/06/09 03:09:42;;;;;;;17.93;14.70;;;17.60;99.90;;;;;;5031918;28;20413;-70
2023/06/09 03:12:09;;;;;;;15.53;14.17;;;17.60;99.90;;;;;;5030727;28;20525;-70
2023/06/09 03:14:35;;;;;;;16.47;14.50;;;17.50;99.90;;;;;;5029847;28;20421;-70
2023/06/09 03:17:01;;;;;;;16.80;15.30;;;17.60;99.90;;;;;;5031117;28;20413;-70
2023/06/09 03:19:27;;;;;;;16.80;15.40;;;17.50;99.90;;;;;;5031177;28;20457;-70
2023/06/09 03:21:53;;;;;;;16.20;14.80;;;17.50;99.90;;;;;;5029635;28;20417;-70
2023/06/09 03:24:19;;;;;;;16.70;15.00;;;17.50;99.90;;;;;;5030718;28;20509;-70
2023/06/09 03:26:48;;;;;;;15.97;14.47;;;17.40;99.90;;;;;;5030077;28;20417;-71
2023/06/09 03:29:14;;;;;;;15.47;14.07;;;17.30;99.90;;;;;;5048725;28;20448;-70
2023/06/09 03:31:40;;;;;;;17.23;15.57;;;17.20;99.90;;;;;;5037208;28;20420;-70
2023/06/09 03:34:06;;;;;;;17.50;15.90;;;17.10;99.90;;;;;;5030516;28;20479;-70
2023/06/09 03:36:33;;;;;;;16.50;15.00;;;17.10;99.90;;;;;;5030943;28;20424;-70
2023/06/09 03:38:59;;;;;;;17.10;15.30;;;17.00;99.90;;;;;;5030744;28;20202;-70
2023/06/09 03:41:25;;;;;;;15.60;14.37;;;16.90;99.90;;;;;;5030089;28;20831;-70
2023/06/09 03:43:51;;;;;;;19.40;17.40;;;16.90;99.90;;;;;;5030335;28;20250;-70
2023/06/09 03:46:16;;;;;;;17.03;15.53;;;17.00;99.90;;;;;;5030695;28;20432;-70
2023/06/09 03:48:42;;;;;;;17.23;15.50;;;17.00;99.90;;;;;;5030530;28;20201;-70
2023/06/09 03:51:08;;;;;;;15.57;14.20;;;16.90;99.90;;;;;;5030573;28;20177;-70
2023/06/09 03:53:34;;;;;;;17.07;15.50;;;16.90;99.90;;;;;;5029810;28;20178;-70
2023/06/09 03:56:00;;;;;;;17.47;15.70;;;16.90;99.90;;;;;;5030514;28;20709;-70
2023/06/09 03:58:26;;;;;;;18.63;16.93;;;16.90;99.90;;;;;;5030278;28;20575;-70
2023/06/09 04:00:52;;;;;;;17.87;16.20;;;17.00;99.90;;;;;;5030478;28;20419;-70
2023/06/09 04:03:20;;;;;;;17.83;16.23;;;17.00;99.90;;;;;;5029239;28;20409;-70
2023/06/09 04:05:47;;;;;;;17.70;16.10;;;17.00;99.90;;;;;;5028992;28;20248;-70
2023/06/09 04:08:13;;;;;;;18.23;16.53;;;17.00;99.90;;;;;;5030067;28;20429;-70
2023/06/09 04:10:40;;;;;;;17.00;15.40;;;17.10;99.90;;;;;;5030143;28;20413;-70
2023/06/09 04:13:07;;;;;;;18.33;16.50;;;17.10;99.90;;;;;;5029211;28;20413;-70
2023/06/09 04:15:33;;;;;;;17.20;15.70;;;17.10;99.90;;;;;;5030256;28;20452;-70
2023/06/09 04:18:01;;;;;;;18.93;17.10;;;17.20;99.90;;;;;;5029859;28;20532;-70
2023/06/09 04:20:27;;;;;;;17.33;15.73;;;17.20;99.90;;;;;;5029260;28;20178;-70
2023/06/09 04:22:53;;;;;;;18.60;17.00;;;17.30;99.90;;;;;;5029192;28;20740;-70
2023/06/09 04:25:25;;;;;;;19.23;17.57;;;17.30;99.90;;;;;;5030089;28;20445;-70
2023/06/09 04:27:52;;;;;;;18.53;16.93;;;17.40;99.90;;;;;;5036243;28;20441;-70
2023/06/09 04:30:19;;;;;;;18.77;16.87;;;17.40;99.90;;;;;;5048025;28;20400;-70
2023/06/09 04:32:44;;;;;;;19.63;17.83;;;17.50;99.90;;;;;;5027781;28;20424;-70
2023/06/09 04:35:10;;;;;;;20.00;18.00;;;17.60;99.90;;;;;;5029774;28;20405;-70
2023/06/09 04:37:36;;;;;;;19.70;17.70;;;17.60;99.90;;;;;;5029335;28;20206;-70
2023/06/09 04:40:03;;;;;;;17.47;15.97;;;17.60;99.90;;;;;;5028361;28;20769;-70
2023/06/09 04:42:29;;;;;;;18.97;17.03;;;17.60;99.90;;;;;;5029055;28;20175;-70
2023/06/09 04:44:55;;;;;;;18.50;17.00;;;17.60;99.90;;;;;;5028038;28;20421;-70
2023/06/09 04:47:24;;;;;;;17.63;16.13;;;17.60;99.90;;;;;;5029414;28;21085;-70
2023/06/09 04:49:50;;;;;;;17.93;16.27;;;17.70;99.90;;;;;;5027912;28;20567;-70
2023/06/09 04:52:20;;;;;;;18.30;16.70;;;17.70;99.90;;;;;;5028434;28;20414;-70
2023/06/09 04:54:49;;;;;;;18.47;16.90;;;17.80;99.90;;;;;;5028838;28;20414;-70
2023/06/09 04:57:17;;;;;;;19.83;17.70;;;17.90;99.90;;;;;;5028805;28;20460;-70
2023/06/09 04:59:45;;;;;;;19.33;17.47;;;17.90;99.90;;;;;;5028850;28;21093;-70
2023/06/09 05:02:11;;;;;;;19.23;17.30;;;18.00;99.90;;;;;;5028273;28;20413;-70
2023/06/09 05:04:37;;;;;;;19.43;17.40;;;18.10;99.90;;;;;;5028328;28;20430;-70
2023/06/09 05:07:04;;;;;;;17.30;15.70;;;18.20;99.90;;;;;;5027532;28;20416;-70
2023/06/09 05:09:29;;;;;;;17.43;15.83;;;18.20;99.90;;;;;;5027423;28;20250;-70
2023/06/09 05:11:55;;;;;;;18.50;16.70;;;18.30;99.90;;;;;;5026100;28;20889;-70
2023/06/09 05:14:21;;;;;;;16.77;15.27;;;18.40;99.90;;;;;;5028380;28;20448;-70
2023/06/09 05:16:47;;;;;;;17.17;15.57;;;18.50;99.90;;;;;;5028809;28;20273;-70
2023/06/09 05:19:13;;;;;;;16.40;15.00;;;18.60;99.90;;;;;;5028469;28;20210;-70
2023/06/09 05:21:39;;;;;;;17.80;16.30;;;18.70;99.90;;;;;;5027958;28;20182;-70
2023/06/09 05:24:05;;;;;;;16.30;14.70;;;18.90;99.90;;;;;;5028270;28;20214;-70
2023/06/09 05:26:32;;;;;;;15.90;14.60;;;19.00;99.90;;;;;;5028566;28;20495;-70
2023/06/09 05:28:58;;;;;;;15.43;14.03;;;19.10;99.90;;;;;;5043972;28;20528;-70
2023/06/09 05:31:24;;;;;;;86.27;19.73;;;19.20;99.90;;;;;;5036773;28;20421;-70
2023/06/09 05:33:50;;;;;;;16.23;14.40;;;19.40;99.90;;;;;;5028129;28;21034;-70
2023/06/09 05:36:16;;;;;;;17.50;16.00;;;19.50;99.90;;;;;;5028376;28;20406;-70
2023/06/09 05:38:42;;;;;;;16.13;14.63;;;19.60;99.90;;;;;;5028247;28;20730;-70
2023/06/09 05:41:07;;;;;;;14.90;13.70;;;19.70;99.90;;;;;;5027204;28;20543;-70
2023/06/09 05:43:33;;;;;;;15.67;14.23;;;19.80;99.90;;;;;;5027371;28;20179;-70
2023/06/09 05:45:59;;;;;;;16.43;14.80;;;20.00;99.90;;;;;;5028277;28;20173;-70
2023/06/09 05:48:25;;;;;;;16.60;14.90;;;20.10;99.90;;;;;;5028119;28;20206;-70
2023/06/09 05:50:51;;;;;;;16.23;14.73;;;20.20;99.90;;;;;;5030724;28;20418;-70
2023/06/09 05:53:16;;;;;;;15.37;13.83;;;20.30;99.90;;;;;;5031373;28;20232;-70
2023/06/09 05:55:45;;;;;;;16.17;14.70;;;20.50;99.90;;;;;;5032386;28;20176;-70
2023/06/09 05:58:15;;;;;;;16.90;14.87;;;20.60;99.90;;;;;;5032243;28;20253;-70
2023/06/09 06:00:41;;;;;;;16.33;14.93;;;20.70;99.90;;;;;;5032314;28;20411;-70
2023/06/09 06:03:09;;;;;;;15.70;14.30;;;20.90;99.90;;;;;;5031326;28;20412;-70
2023/06/09 06:05:34;;;;;;;15.70;14.47;;;21.00;99.90;;;;;;5032387;28;20533;-70
2023/06/09 06:08:00;;;;;;;15.50;14.20;;;21.00;99.90;;;;;;5032047;28;20500;-70
2023/06/09 06:10:26;;;;;;;15.20;14.00;;;21.10;99.90;;;;;;5031901;28;20228;-70
2023/06/09 06:12:53;;;;;;;14.80;13.50;;;21.30;99.90;;;;;;5030429;28;20406;-70
2023/06/09 06:15:18;;;;;;;14.20;13.00;;;21.40;99.90;;;;;;5046990;28;20410;-70
2023/06/09 06:17:44;;;;;;;14.77;13.50;;;21.50;99.90;;;;;;5031751;28;20437;-70
2023/06/09 06:20:12;;;;;;;14.07;12.73;;;21.60;99.90;;;;;;5027719;28;20265;-70
2023/06/09 06:22:39;;;;;;;13.43;12.40;;;21.80;99.90;;;;;;5029590;28;20413;-70
2023/06/09 06:25:05;;;;;;;14.03;12.83;;;21.90;99.90;;;;;;5031283;28;20413;-70
2023/06/09 06:27:30;;;;;;;13.23;12.13;;;22.00;99.90;;;;;;5029059;28;21018;-70
2023/06/09 06:29:56;;;;;;;13.20;11.77;;;22.20;99.90;;;;;;5011942;28;20941;-70
2023/06/09 06:32:22;;;;;;;12.70;11.50;;;22.20;99.90;;;;;;5011330;28;20544;-70
2023/06/09 06:34:47;;;;;;;13.60;12.30;;;22.30;99.90;;;;;;5011621;28;20346;-70
2023/06/09 06:37:14;;;;;;;14.03;12.67;;;22.50;99.90;;;;;;5022753;28;20194;-70
2023/06/09 06:39:39;;;;;;;13.90;12.80;;;22.50;99.90;;;;;;5031558;28;20268;-70
2023/06/09 06:42:06;;;;;;;13.23;12.00;;;22.60;99.90;;;;;;5030761;28;20441;-70
2023/06/09 06:44:31;;;;;;;15.17;12.97;;;22.70;99.90;;;;;;5031175;28;20193;-70
2023/06/09 06:46:57;;;;;;;13.53;12.43;;;22.80;99.90;;;;;;5031371;28;20405;-70
2023/06/09 06:49:22;;;;;;;12.37;11.30;;;22.90;99.90;;;;;;5031404;28;20182;-70
2023/06/09 06:51:48;;;;;;;11.87;10.83;;;23.00;99.90;;;;;;5029414;28;20186;-70
2023/06/09 06:54:15;;;;;;;13.03;11.63;;;23.00;99.90;;;;;;5020295;28;20266;-70
2023/06/09 06:56:41;;;;;;;12.87;11.87;;;23.20;99.90;;;;;;5011538;28;20341;-70
2023/06/09 06:59:07;;;;;;;11.73;10.63;;;23.30;99.90;;;;;;5011242;28;20557;-71
2023/06/09 07:01:33;;;;;;;12.83;11.83;;;23.30;99.90;;;;;;5009763;28;20179;-70
2023/06/09 07:03:59;;;;;;;13.00;11.57;;;23.30;99.90;;;;;;5011030;28;20640;-70
2023/06/09 07:06:25;;;;;;;13.07;11.73;;;23.40;99.90;;;;;;5011296;28;20517;-70
2023/06/09 07:08:54;;;;;;;13.20;12.10;;;23.50;99.90;;;;;;5011228;28;20199;-70
2023/06/09 07:11:21;;;;;;;12.67;11.37;;;23.50;99.90;;;;;;5010518;28;20500;-70
2023/06/09 07:13:47;;;;;;;12.93;11.83;;;23.60;99.90;;;;;;5010787;28;20807;-71
2023/06/09 07:16:13;;;;;;;12.60;11.60;;;23.70;99.90;;;;;;5011270;28;20413;-70
2023/06/09 07:18:38;;;;;;;12.30;11.20;;;23.70;99.90;;;;;;5009682;28;20711;-70
2023/06/09 07:21:04;;;;;;;13.23;12.10;;;23.70;99.90;;;;;;5010108;28;20270;-70
2023/06/09 07:23:30;;;;;;;12.50;11.50;;;23.70;99.90;;;;;;5009922;28;20595;-70
2023/06/09 07:25:55;;;;;;;12.87;11.67;;;23.80;99.90;;;;;;5011108;28;20270;-70
2023/06/09 07:28:21;;;;;;;11.73;10.73;;;23.80;99.90;;;;;;5021127;28;20198;-71
2023/06/09 07:30:47;;;;;;;13.17;11.43;;;23.90;99.90;;;;;;5030790;28;20193;-70
2023/06/09 07:33:13;;;;;;;11.97;10.77;;;23.90;99.90;;;;;;5028372;28;20261;-70
2023/06/09 07:35:40;;;;;;;12.20;11.13;;;24.00;99.90;;;;;;5030671;28;20689;-70
2023/06/09 07:38:08;;;;;;;14.43;11.57;;;24.10;99.90;;;;;;5030274;28;20468;-70
2023/06/09 07:40:33;;;;;;;13.60;12.43;;;24.20;99.90;;;;;;5030563;28;20409;-70
2023/06/09 07:42:59;;;;;;;12.50;11.50;;;24.30;99.90;;;;;;5029457;28;20645;-70
2023/06/09 07:45:25;;;;;;;13.57;12.37;;;24.40;99.90;;;;;;5030271;28;20186;-71
2023/06/09 07:47:50;;;;;;;13.90;12.60;;;24.40;99.90;;;;;;5030096;28;20205;-71
2023/06/09 07:50:17;;;;;;;14.17;12.97;;;24.40;99.90;;;;;;5030383;28;20174;-70
2023/06/09 07:52:43;;;;;;;13.33;12.13;;;24.40;99.90;;;;;;5029474;28;20500;-71
2023/06/09 07:55:09;;;;;;;13.20;12.00;;;24.40;99.90;;;;;;5030013;28;20412;-70
2023/06/09 07:57:34;;;;;;;14.17;12.80;;;24.50;99.90;;;;;;5030054;28;20205;-70
2023/06/09 08:00:01;;;;;;;11.30;10.40;;;24.50;99.90;;;;;;5029946;28;20305;-70
2023/06/09 08:02:26;;;;;;;12.37;11.27;;;24.50;99.90;;;;;;5029374;28;20413;-70
2023/06/09 08:04:52;;;;;;;11.83;10.90;;;24.40;99.90;;;;;;5029411;28;20440;-71
2023/06/09 08:07:18;;;;;;;11.73;10.70;;;24.40;99.90;;;;;;5029733;28;20198;-70
2023/06/09 08:09:43;;;;;;;10.50;9.70;;;24.40;99.90;;;;;;5029921;28;20179;-70
2023/06/09 08:12:11;;;;;;;12.87;11.57;;;24.40;99.90;;;;;;5027913;28;20190;-71
2023/06/09 08:14:37;;;;;;;12.43;11.17;;;24.30;99.90;;;;;;5029233;28;20179;-70
2023/06/09 08:17:02;;;;;;;13.10;12.00;;;24.20;99.90;;;;;;5029690;28;20428;-71
2023/06/09 08:19:28;;;;;;;11.50;10.70;;;24.10;99.90;;;;;;5029555;28;20293;-70
2023/06/09 08:21:54;;;;;;;11.33;10.33;;;24.10;99.90;;;;;;5028092;28;20182;-71
2023/06/09 08:24:20;;;;;;;11.80;10.80;;;24.10;99.90;;;;;;5028894;28;20182;-70
2023/06/09 08:26:48;;;;;;;11.73;10.70;;;24.20;99.90;;;;;;5029596;28;21029;-70
2023/06/09 08:29:15;;;;;;;11.97;10.77;;;24.20;99.90;;;;;;5011810;28;20208;-71
2023/06/09 08:31:41;;;;;;;13.03;11.63;;;24.20;99.90;;;;;;5009322;28;20461;-70
2023/06/09 08:34:07;;;;;;;14.93;10.43;;;24.40;99.90;;;;;;5009336;28;20425;-70
2023/06/09 08:36:33;;;;;;;12.27;11.23;;;24.40;99.90;;;;;;5008335;28;20931;-70
2023/06/09 08:38:59;;;;;;;11.40;10.50;;;24.50;99.90;;;;;;5009300;28;20498;-70
2023/06/09 08:41:34;;;;;;;13.00;10.57;;;24.50;99.90;;;;;;5009155;28;20452;-70
2023/06/09 08:44:01;;;;;;;11.07;10.17;;;24.60;99.90;;;;;;5009686;28;20593;-70
2023/06/09 08:46:32;;;;;;;9.73;8.70;;;24.70;99.90;;;;;;5008773;28;20539;-70
2023/06/09 08:49:01;;;;;;;9.60;8.70;;;24.70;99.90;;;;;;5010014;28;20430;-70
2023/06/09 08:51:28;;;;;;;9.87;8.97;;;24.70;99.90;;;;;;5009115;28;20476;-71
2023/06/09 08:53:54;;;;;;;10.27;9.37;;;24.80;99.90;;;;;;5009511;28;20873;-70
2023/06/09 08:56:21;;;;;;;10.73;9.93;;;24.90;99.80;;;;;;5009755;28;20419;-70
2023/06/09 08:58:49;;;;;;;10.93;10.03;;;25.00;99.90;;;;;;5009522;28;20454;-70
2023/06/09 09:01:17;;;;;;;10.30;9.50;;;25.00;99.90;;;;;;5009240;28;20764;-71
2023/06/09 09:03:50;;;;;;;11.53;10.53;;;25.10;99.90;;;;;;5008982;28;20421;-70
2023/06/09 09:06:16;;;;;;;10.60;9.80;;;25.20;99.90;;;;;;5009298;28;20437;-70
2023/06/09 09:08:43;;;;;;;11.37;10.37;;;25.30;99.90;;;;;;5009951;28;20442;-70
2023/06/09 09:11:10;;;;;;;11.30;10.37;;;25.40;99.90;;;;;;5009581;28;20409;-70
2023/06/09 09:13:35;;;;;;;11.23;10.23;;;25.50;99.90;;;;;;5008514;28;20473;-70
2023/06/09 09:16:01;;;;;;;9.63;8.83;;;25.60;99.90;;;;;;5009594;28;20422;-70
2023/06/09 09:18:31;;;;;;;9.87;9.10;;;25.70;99.20;;;;;;5009224;28;20206;-71
2023/06/09 09:20:58;;;;;;;8.83;8.17;;;25.80;99.00;;;;;;5008367;28;20410;-71
2023/06/09 09:23:34;;;;;;;10.30;9.30;;;25.90;98.30;;;;;;5008279;28;20939;-71
2023/06/09 09:26:02;;;;;;;9.87;9.07;;;25.80;96.70;;;;;;5008556;28;20999;-70
2023/06/09 09:28:39;;;;;;;8.67;7.97;;;25.80;97.00;;;;;;5020373;28;20524;-71
2023/06/09 09:31:08;;;;;;;8.07;7.47;;;25.90;96.60;;;;;;5028949;28;20771;-70
2023/06/09 09:33:38;;;;;;;9.17;7.50;;;25.90;96.30;;;;;;5028114;28;20920;-70
2023/06/09 09:36:08;;;;;;;8.03;7.43;;;26.00;95.20;;;;;;5029036;28;20962;-71
2023/06/09 09:38:34;;;;;;;8.20;7.60;;;25.90;94.60;;;;;;5028741;28;20515;-71
2023/06/09 09:41:00;;;;;;;8.27;7.60;;;25.90;95.70;;;;;;5028711;28;20413;-70
2023/06/09 09:43:30;;;;;;;7.90;7.30;;;26.00;96.50;;;;;;5027896;28;20181;-70
2023/06/09 09:46:01;;;;;;;7.83;7.23;;;26.10;96.10;;;;;;5027748;28;20413;-70
2023/06/09 09:48:27;;;;;;;8.33;7.70;;;26.20;95.40;;;;;;5028803;28;20441;-70
2023/06/09 09:50:57;;;;;;;9.20;8.17;;;26.20;95.00;;;;;;5028826;28;20413;-71
2023/06/09 09:53:24;;;;;;;7.43;6.93;;;26.20;94.80;;;;;;5028075;28;20910;-70
2023/06/09 09:55:52;;;;;;;8.07;7.47;;;26.30;94.90;;;;;;5028865;28;20898;-71
2023/06/09 09:58:20;;;;;;;7.43;6.80;;;26.40;94.50;;;;;;5028672;28;20879;-71
2023/06/09 10:00:47;;;;;;;7.00;6.50;;;26.40;92.90;;;;;;5027387;28;20420;-71
2023/06/09 10:03:17;;;;;;;6.63;6.03;;;26.50;92.10;;;;;;5027663;28;20436;-70
2023/06/09 10:05:48;;;;;;;6.57;5.97;;;26.40;91.70;;;;;;5028550;28;20969;-70
2023/06/09 10:08:21;;;;;;;8.40;5.90;;;26.50;90.80;;;;;;5028534;28;20444;-70
2023/06/09 10:10:49;;;;;;;6.60;5.90;;;26.50;90.70;;;;;;5028613;28;20405;-70
2023/06/09 10:13:15;;;;;;;6.07;5.57;;;26.50;90.30;;;;;;5027601;28;20409;-70
2023/06/09 10:15:43;;;;;;;7.50;6.90;;;26.60;88.60;;;;;;5028635;28;20440;-70
2023/06/09 10:18:10;;;;;;;6.83;6.23;;;26.70;88.90;;;;;;5028281;28;20428;-71
2023/06/09 10:20:36;;;;;;;7.30;6.40;;;26.70;88.60;;;;;;5027514;28;20499;-70
2023/06/09 10:23:04;;;;;;;7.10;6.50;;;26.70;87.50;;;;;;5027692;28;20409;-70
2023/06/09 10:25:30;;;;;;;7.70;7.00;;;26.80;86.50;;;;;;5028531;28;20405;-70
2023/06/09 10:27:56;;;;;;;6.80;6.20;;;26.80;85.30;;;;;;5021309;28;20529;-70
2023/06/09 10:30:22;;;;;;;6.63;6.13;;;26.90;85.70;;;;;;5008785;28;20402;-70
2023/06/09 10:32:55;;;;;;;7.77;7.07;;;26.90;86.30;;;;;;5023108;28;20433;-71
2023/06/09 10:35:27;;;;;;;6.93;6.43;;;27.00;85.50;;;;;;5026279;28;20425;-70
2023/06/09 10:37:54;;;;;;;6.90;6.30;;;26.90;85.80;;;;;;5028531;28;20448;-70
2023/06/09 10:40:26;;;;;;;7.30;6.67;;;27.00;85.50;;;;;;5031766;28;20432;-70
2023/06/09 10:42:59;;;;;;;7.90;7.27;;;27.00;86.80;;;;;;5031164;28;20416;-70
2023/06/09 10:45:48;;;;;;;8.13;7.40;;;27.10;89.20;;;;;;5031711;28;20814;-70
2023/06/09 10:48:14;;;;;;;7.30;6.60;;;27.20;88.40;;;;;;5026481;28;20461;-71
2023/06/09 10:50:40;;;;;;;5.70;5.30;;;27.40;87.40;;;;;;5031570;28;20420;-71
2023/06/09 10:53:15;;;;;;;6.17;5.77;;;27.40;85.40;;;;;;5030517;28;20950;-71
2023/06/09 10:55:41;;;;;;;7.03;6.43;;;27.40;82.60;;;;;;5031509;28;20660;-71
2023/06/09 10:58:36;;;;;;;6.87;6.37;;;27.40;80.90;;;;;;5031372;28;20516;-71
2023/06/09 11:01:07;;;;;;;6.90;6.30;;;27.50;82.90;;;;;;5025035;28;20229;-70
2023/06/09 11:03:32;;;;;;;7.47;6.83;;;27.50;82.40;;;;;;5030375;28;20421;-71
2023/06/09 11:06:02;;;;;;;7.53;6.90;;;27.50;83.60;;;;;;5031293;28;20453;-71
2023/06/09 11:09:08;;;;;;;6.30;5.80;;;27.60;85.70;;;;;;5030019;28;20198;-71
2023/06/09 11:11:53;;;;;;;8.73;6.50;;;27.60;82.90;;;;;;5030819;28;20452;-71
2023/06/09 11:15:00;;;;;;;7.20;6.57;;;27.60;83.60;;;;;;5025606;28;20474;-70
2023/06/09 11:17:41;;;;;;;6.97;6.47;;;27.50;82.20;;;;;;5005540;28;20446;-70
2023/06/09 11:20:09;;;;;;;6.70;6.20;;;27.40;80.50;;;;;;5028820;28;20558;-71
2023/06/09 11:22:41;;;;;;;6.40;5.90;;;27.20;81.00;;;;;;5030844;28;20452;-71
2023/06/09 11:25:19;;;;;;;7.50;6.90;;;27.10;80.70;;;;;;5031086;28;20413;-71
2023/06/09 11:27:55;;;;;;;7.13;6.37;;;27.00;79.90;;;;;;5031077;28;20444;-70
2023/06/09 11:30:23;;;;;;;7.20;6.70;;;26.90;82.30;;;;;;5027238;28;20772;-71
2023/06/09 11:33:03;;;;;;;8.80;8.00;;;26.90;81.10;;;;;;5030420;28;20902;-70
2023/06/09 11:35:28;;;;;;;9.33;8.60;;;27.10;89.00;;;;;;5028029;28;20479;-71
2023/06/09 11:38:19;;;;;;;9.53;8.50;;;27.20;90.30;;;;;;5030895;28;20456;-71
2023/06/09 11:40:52;;;;;;;9.20;8.30;;;27.20;90.10;;;;;;5030090;28;20258;-71
2023/06/09 11:43:19;;;;;;;11.17;7.97;;;27.20;89.70;;;;;;5029748;28;20437;-71
2023/06/09 11:45:45;;;;;;;8.13;7.53;;;27.20;90.00;;;;;;5030825;28;20417;-71
2023/06/09 11:48:11;;;;;;;8.17;7.63;;;27.20;90.80;;;;;;5029414;28;20427;-71
2023/06/09 11:50:47;;;;;;;8.53;7.93;;;27.30;89.70;;;;;;5030618;28;20444;-70
2023/06/09 11:53:17;;;;;;;9.00;8.30;;;27.40;87.40;;;;;;5029788;28;21091;-71
2023/06/09 11:55:43;;;;;;;9.77;9.00;;;27.60;91.00;;;;;;5030631;28;20469;-70
2023/06/09 11:58:10;;;;;;;9.57;8.77;;;27.70;90.90;;;;;;5030510;28;20421;-71
2023/06/09 12:00:41;;;;;;;8.97;8.17;;;27.80;91.20;;;;;;5030613;28;20410;-70
2023/06/09 12:03:07;;;;;;;9.70;8.70;;;27.90;90.00;;;;;;5029553;28;20405;-71
2023/06/09 12:05:33;;;;;;;8.57;7.97;;;27.80;89.70;;;;;;5030196;28;21036;-71
2023/06/09 12:08:02;;;;;;;9.40;8.70;;;27.70;90.40;;;;;;5030519;28;20437;-71
2023/06/09 12:10:29;;;;;;;9.80;9.10;;;27.60;90.20;;;;;;5030355;28;20428;-71
2023/06/09 12:12:58;;;;;;;8.63;7.93;;;27.40;89.50;;;;;;5029714;28;20402;-71
2023/06/09 12:15:26;;;;;;;8.80;8.20;;;27.40;90.60;;;;;;5030128;28;20409;-71
2023/06/09 12:17:54;;;;;;;9.67;8.70;;;27.40;92.00;;;;;;5030184;28;20429;-71
2023/06/09 12:20:26;;;;;;;9.73;9.03;;;27.40;92.40;;;;;;5029208;28;20460;-71
2023/06/09 12:23:12;;;;;;;8.60;7.93;;;27.40;90.10;;;;;;5029717;28;20436;-71
2023/06/09 12:25:46;;;;;;;9.13;8.43;;;27.40;91.20;;;;;;5030156;28;20410;-71
2023/06/09 12:28:15;;;;;;;9.47;8.77;;;27.20;90.40;;;;;;5029994;28;20441;-71
2023/06/09 12:30:50;;;;;;;9.20;8.30;;;27.10;90.60;;;;;;5029944;28;20805;-71
2023/06/09 12:33:17;;;;;;;9.10;8.47;;;26.90;91.00;;;;;;5029347;28;20401;-71
2023/06/09 12:35:46;;;;;;;8.70;8.10;;;26.80;90.50;;;;;;5030052;28;20417;-71
2023/06/09 12:38:13;;;;;;;10.10;9.10;;;26.70;91.60;;;;;;5028551;28;20433;-71